Time;durP1;ratioP1;P1;durP2;ratioP2;P2;SDS_P1;SDS_P2;PMS_P1;PMS_P2;Temp;Humidity;BMP_temperature;BMP_pressure;BME280_temperature;BME280_humidity;BME280_pressure;Samples;Min_cycle;Max_cycle;Signal;HPM_P1;HPM_P2
2022/08/23 00:00:29;;;;;;;9.23;4.40;;;;;;;24.29;53.17;100035.53;5092789;28;20236;-63
2022/08/23 00:02:55;;;;;;;12.10;4.37;;;;;;;24.28;52.87;100041.75;5092736;28;20166;-64
2022/08/23 00:05:21;;;;;;;12.57;4.00;;;;;;;24.25;53.24;100036.81;5092904;28;20185;-63
2022/08/23 00:07:46;;;;;;;11.93;4.80;;;;;;;24.18;53.33;100034.81;5093386;28;20258;-63
2022/08/23 00:10:14;;;;;;;10.60;4.30;;;;;;;24.19;53.16;100033.56;5092116;28;20183;-64
2022/08/23 00:12:40;;;;;;;7.20;3.90;;;;;;;24.20;52.89;100031.50;5093226;28;20283;-64
2022/08/23 00:15:06;;;;;;;8.40;4.80;;;;;;;24.23;53.16;100027.78;5091569;28;20892;-64
2022/08/23 00:17:32;;;;;;;7.93;4.27;;;;;;;24.26;52.53;100030.63;5092388;28;20170;-64
2022/08/23 00:19:57;;;;;;;7.53;3.97;;;;;;;24.28;52.86;100036.78;5091956;28;20814;-64
2022/08/23 00:22:23;;;;;;;7.60;4.13;;;;;;;24.29;52.78;100026.88;5092633;28;20526;-64
2022/08/23 00:24:48;;;;;;;12.33;4.27;;;;;;;24.32;52.88;100028.09;5092481;28;20174;-64
2022/08/23 00:27:15;;;;;;;6.60;4.23;;;;;;;24.32;52.59;100023.16;5092398;28;20178;-63
2022/08/23 00:29:49;;;;;;;14.53;4.90;;;;;;;24.33;52.66;100024.78;5092638;28;20171;-63
2022/08/23 00:32:19;;;;;;;9.40;3.97;;;;;;;24.33;52.88;100030.56;5092913;28;20440;-63
2022/08/23 00:34:50;;;;;;;8.40;4.10;;;;;;;24.29;52.84;100038.41;5093329;28;20868;-63
2022/08/23 00:37:16;;;;;;;6.00;4.57;;;;;;;24.28;52.50;100033.09;5092937;28;20887;-63
2022/08/23 00:39:42;;;;;;;7.03;4.60;;;;;;;24.28;52.63;100039.66;5092887;28;20468;-63
2022/08/23 00:47:43;;;;;;;6.60;4.17;;;;;;;24.30;52.48;100040.09;5071809;28;20408;-63
2022/08/23 00:50:29;;;;;;;6.60;4.37;;;;;;;24.30;52.46;100034.31;5062708;28;20919;-63
2022/08/23 00:52:55;;;;;;;6.00;3.67;;;;;;;24.30;53.09;100033.47;5090596;28;20188;-63
2022/08/23 00:55:20;;;;;;;6.70;4.37;;;;;;;24.31;52.24;100035.94;5092092;28;20491;-63
2022/08/23 00:57:46;;;;;;;5.43;3.87;;;;;;;24.30;52.31;100036.34;5092727;28;20171;-63
2022/08/23 01:00:12;;;;;;;7.83;4.37;;;;;;;24.29;52.36;100029.75;5092157;28;20244;-63
2022/08/23 01:02:37;;;;;;;8.03;4.23;;;;;;;24.28;52.21;100025.25;5092336;28;20182;-63
2022/08/23 01:05:03;;;;;;;6.27;3.97;;;;;;;24.27;52.18;100028.53;5091461;28;20640;-63
2022/08/23 01:07:46;;;;;;;6.20;3.43;;;;;;;24.25;52.35;100034.78;5092613;28;20254;-63
2022/08/23 01:10:22;;;;;;;8.00;4.47;;;;;;;24.25;52.50;100029.00;5092568;28;20594;-63
2022/08/23 01:12:51;;;;;;;5.90;3.83;;;;;;;24.27;52.26;100031.44;5085362;28;20467;-63
2022/08/23 01:15:44;;;;;;;5.37;3.57;;;;;;;24.27;52.25;100038.03;5054469;28;20422;-63
2022/08/23 01:18:12;;;;;;;5.17;3.77;;;;;;;24.26;51.91;100039.28;5056190;28;20417;-63
2022/08/23 01:20:50;;;;;;;5.80;4.20;;;;;;;24.25;52.01;100029.00;5070741;28;20464;-63
2022/08/23 01:23:40;;;;;;;5.67;3.90;;;;;;;24.25;51.80;100036.81;5054624;28;20413;-63
2022/08/23 01:26:06;;;;;;;6.90;3.90;;;;;;;24.24;52.31;100033.09;5070869;28;20467;-63
2022/08/23 01:28:32;;;;;;;5.83;3.80;;;;;;;24.23;52.10;100033.56;5071837;28;21127;-63
2022/08/23 01:30:58;;;;;;;6.50;4.60;;;;;;;24.23;52.08;100036.44;5071391;28;20187;-63
2022/08/23 01:33:23;;;;;;;6.10;4.80;;;;;;;24.22;52.03;100047.16;5071031;28;20648;-63
2022/08/23 01:35:52;;;;;;;6.20;3.90;;;;;;;24.22;52.19;100040.53;5070952;28;20615;-63
2022/08/23 01:38:17;;;;;;;9.10;3.73;;;;;;;24.24;52.18;100053.31;5069512;28;20198;-63
2022/08/23 01:40:43;;;;;;;6.53;3.97;;;;;;;24.24;52.24;100052.50;5071538;28;20428;-63
2022/08/23 01:43:09;;;;;;;8.37;5.00;;;;;;;24.24;51.83;100053.31;5071716;28;20190;-63
2022/08/23 01:45:35;;;;;;;5.53;4.10;;;;;;;24.23;52.27;100054.56;5081659;28;20179;-63
2022/08/23 01:48:01;;;;;;;6.67;4.50;;;;;;;24.23;51.85;100053.75;5071624;28;20182;-63
2022/08/23 01:50:27;;;;;;;6.07;3.83;;;;;;;24.24;51.82;100052.50;5070126;28;20182;-63
2022/08/23 01:52:52;;;;;;;10.67;4.37;;;;;;;24.21;51.88;100057.06;5071436;28;20425;-63
2022/08/23 01:55:18;;;;;;;5.50;4.27;;;;;;;24.21;51.75;100057.06;5071720;28;20183;-63
2022/08/23 01:57:44;;;;;;;7.10;3.97;;;;;;;24.20;51.94;100058.31;5070230;28;20183;-64
2022/08/23 02:00:10;;;;;;;6.83;4.13;;;;;;;24.19;51.61;100058.72;5071895;28;20664;-64
2022/08/23 02:02:36;;;;;;;6.47;4.33;;;;;;;24.17;51.90;100055.44;5070780;28;20585;-64
2022/08/23 02:05:03;;;;;;;6.20;4.20;;;;;;;24.17;51.88;100053.38;5071277;28;20425;-63
2022/08/23 02:07:29;;;;;;;8.43;4.10;;;;;;;24.18;51.80;100057.91;5071182;28;20421;-63
2022/08/23 02:09:54;;;;;;;8.03;4.40;;;;;;;24.19;51.62;100065.28;5071183;28;20421;-63
2022/08/23 02:12:20;;;;;;;5.43;3.83;;;;;;;24.20;51.76;100063.25;5070947;28;20223;-64
2022/08/23 02:14:45;;;;;;;11.20;4.17;;;;;;;24.19;51.87;100056.66;5070244;28;20236;-64
2022/08/23 02:17:11;;;;;;;7.20;3.80;;;;;;;24.20;51.99;100063.25;5090106;28;20174;-64
2022/08/23 02:19:37;;;;;;;6.70;4.33;;;;;;;24.19;51.83;100065.28;5091030;28;20202;-64
2022/08/23 02:22:04;;;;;;;5.47;4.17;;;;;;;24.20;51.67;100080.56;5091395;28;20178;-64
2022/08/23 02:24:30;;;;;;;5.40;4.03;;;;;;;24.19;51.77;100070.25;5091188;28;20435;-63
2022/08/23 02:26:58;;;;;;;8.23;4.27;;;;;;;24.18;51.76;100078.09;5091180;28;20424;-63
2022/08/23 02:29:24;;;;;;;5.93;4.20;;;;;;;24.19;51.88;100081.81;5090064;28;20544;-63
2022/08/23 02:31:49;;;;;;;5.30;4.33;;;;;;;24.17;51.79;100075.63;5091214;28;20421;-63
2022/08/23 02:34:15;;;;;;;9.90;4.07;;;;;;;24.15;51.32;100078.13;5091211;28;20651;-63
2022/08/23 02:36:41;;;;;;;8.00;4.40;;;;;;;24.12;51.51;100078.97;5091206;28;20174;-63
2022/08/23 02:39:07;;;;;;;5.47;4.47;;;;;;;24.10;51.49;100085.19;5091106;28;20221;-63
2022/08/23 02:41:33;;;;;;;6.00;4.30;;;;;;;24.10;51.52;100084.34;5093180;28;20420;-64
2022/08/23 02:43:59;;;;;;;6.67;4.43;;;;;;;24.11;51.68;100085.97;5095750;28;20203;-63
2022/08/23 02:46:24;;;;;;;6.30;3.70;;;;;;;24.12;51.65;100099.97;5096783;28;20428;-63
2022/08/23 02:48:50;;;;;;;5.77;4.20;;;;;;;24.13;51.63;100104.50;5095160;28;20247;-63
2022/08/23 02:51:15;;;;;;;6.27;4.40;;;;;;;24.13;51.55;100106.59;5077865;28;20224;-63
2022/08/23 02:53:41;;;;;;;5.90;3.63;;;;;;;24.12;51.75;100105.75;5076700;28;20228;-63
2022/08/23 02:56:08;;;;;;;5.80;3.93;;;;;;;24.14;51.46;100108.22;5076911;28;20175;-63
2022/08/23 02:58:33;;;;;;;7.20;4.20;;;;;;;24.13;51.23;100107.38;5077124;28;20233;-63
2022/08/23 03:00:59;;;;;;;8.17;3.87;;;;;;;24.13;51.69;100109.47;5097283;28;20439;-63
2022/08/23 03:03:25;;;;;;;5.63;4.00;;;;;;;24.11;51.58;100104.13;5097361;28;20185;-63
2022/08/23 03:05:50;;;;;;;6.90;4.03;;;;;;;24.09;51.49;100102.91;5097749;28;20416;-63
2022/08/23 03:08:16;;;;;;;5.43;3.97;;;;;;;24.07;50.98;100111.97;5089892;28;20212;-63
2022/08/23 03:10:45;;;;;;;7.80;4.67;;;;;;;24.07;51.09;100096.72;5085847;28;20206;-63
2022/08/23 03:13:11;;;;;;;4.97;4.47;;;;;;;24.06;51.52;100101.69;5097356;28;20236;-63
2022/08/23 03:15:37;;;;;;;6.03;4.20;;;;;;;24.06;51.10;100098.81;5097384;28;20919;-63
2022/08/23 03:18:03;;;;;;;7.67;4.60;;;;;;;24.03;50.95;100099.63;5097427;28;20633;-63
2022/08/23 03:20:28;;;;;;;6.80;3.87;;;;;;;24.03;51.00;100104.59;5097320;28;20427;-63
2022/08/23 03:22:53;;;;;;;6.20;4.10;;;;;;;24.03;51.21;100102.53;5097543;28;20204;-63
2022/08/23 03:25:19;;;;;;;6.10;3.60;;;;;;;24.04;51.34;100103.34;5097349;28;20170;-63
2022/08/23 03:27:44;;;;;;;5.40;3.90;;;;;;;24.05;51.49;100110.75;5096831;28;20208;-64
2022/08/23 03:30:11;;;;;;;6.73;4.00;;;;;;;24.06;51.26;100109.50;5096682;28;20181;-63
2022/08/23 03:32:36;;;;;;;5.77;4.27;;;;;;;24.06;51.20;100113.22;5096900;28;20178;-63
2022/08/23 03:35:02;;;;;;;8.87;4.40;;;;;;;24.06;51.31;100115.28;5097188;28;20911;-63
2022/08/23 03:37:27;;;;;;;6.43;3.63;;;;;;;24.06;51.05;100112.38;5095877;28;20633;-63
2022/08/23 03:39:53;;;;;;;6.77;4.00;;;;;;;24.06;51.28;100123.94;5096921;28;20229;-63
2022/08/23 03:42:18;;;;;;;5.73;3.97;;;;;;;24.06;51.13;100123.94;5097198;28;20224;-63
2022/08/23 03:44:44;;;;;;;6.17;3.87;;;;;;;24.05;51.00;100128.06;5097062;28;20174;-63
2022/08/23 03:47:09;;;;;;;5.47;4.20;;;;;;;24.05;51.29;100134.66;5096819;28;20182;-63
2022/08/23 03:49:36;;;;;;;4.87;3.70;;;;;;;24.04;50.93;100126.44;5096417;28;20230;-63
2022/08/23 03:52:01;;;;;;;9.23;4.47;;;;;;;24.04;50.93;100132.19;5095295;28;20170;-63
2022/08/23 03:54:27;;;;;;;6.27;4.07;;;;;;;24.03;50.95;100137.13;5092971;28;20859;-64
2022/08/23 03:57:01;;;;;;;6.50;3.90;;;;;;;24.04;50.93;100133.00;5092801;28;20178;-63
2022/08/23 03:59:27;;;;;;;6.63;4.30;;;;;;;24.02;50.80;100134.66;5091816;28;20504;-63
2022/08/23 04:01:53;;;;;;;7.30;4.10;;;;;;;24.00;50.89;100140.88;5093908;28;20424;-64
2022/08/23 04:04:18;;;;;;;8.77;4.50;;;;;;;23.99;50.88;100142.09;5093772;28;20174;-63
2022/08/23 04:06:44;;;;;;;8.30;4.10;;;;;;;23.98;50.76;100146.22;5092531;28;20701;-63
2022/08/23 04:09:11;;;;;;;6.83;4.17;;;;;;;23.97;50.77;100153.25;5090662;28;20533;-64
2022/08/23 04:11:36;;;;;;;6.40;4.30;;;;;;;23.97;50.99;100153.25;5093544;28;20520;-64
2022/08/23 04:14:02;;;;;;;6.90;4.50;;;;;;;23.96;51.05;100159.44;5093357;28;20412;-64
2022/08/23 04:16:29;;;;;;;5.03;3.47;;;;;;;23.97;50.73;100155.31;5093489;28;20178;-64
2022/08/23 04:18:54;;;;;;;6.07;3.70;;;;;;;23.97;50.62;100163.94;5093427;28;20214;-64
2022/08/23 04:21:21;;;;;;;6.00;3.93;;;;;;;23.96;50.51;100159.44;5093625;28;20424;-64
2022/08/23 04:23:46;;;;;;;8.03;4.40;;;;;;;23.94;50.79;100154.06;5093216;28;20186;-64
2022/08/23 04:26:12;;;;;;;9.53;4.20;;;;;;;23.95;50.68;100152.03;5093316;28;20505;-64
2022/08/23 04:28:37;;;;;;;5.40;3.80;;;;;;;23.94;50.93;100153.28;5093197;28;20177;-64
2022/08/23 04:31:03;;;;;;;6.20;3.70;;;;;;;23.95;50.84;100157.78;5093518;28;20182;-64
2022/08/23 04:33:30;;;;;;;5.27;4.30;;;;;;;23.95;50.82;100164.41;5091893;28;20630;-64
2022/08/23 04:35:56;;;;;;;5.23;3.70;;;;;;;23.95;50.91;100177.97;5093184;28;20178;-64
2022/08/23 04:38:22;;;;;;;4.90;3.40;;;;;;;23.95;50.76;100175.09;5093157;28;20473;-64
2022/08/23 04:43:31;;;;;;;5.67;3.60;;;;;;;23.95;50.71;100175.94;5093146;28;20216;-64
2022/08/23 04:45:56;;;;;;;8.00;4.57;;;;;;;23.94;51.28;100174.25;5092801;28;20423;-64
2022/08/23 04:48:22;;;;;;;6.77;3.93;;;;;;;23.94;51.07;100182.91;5092960;28;20626;-64
2022/08/23 04:50:48;;;;;;;6.93;4.30;;;;;;;23.94;50.76;100185.00;5092956;28;20183;-64
2022/08/23 04:53:14;;;;;;;10.53;4.77;;;;;;;23.94;51.02;100191.56;5087493;28;20603;-64
2022/08/23 04:55:39;;;;;;;9.20;4.50;;;;;;;23.93;51.05;100198.59;5072366;28;20649;-64
2022/08/23 04:58:05;;;;;;;6.30;4.23;;;;;;;23.94;51.07;100185.81;5072576;28;20175;-64
2022/08/23 05:00:30;;;;;;;5.90;3.60;;;;;;;23.92;51.13;100194.06;5072492;28;20244;-64
2022/08/23 05:02:56;;;;;;;6.13;3.70;;;;;;;23.92;51.03;100185.41;5072490;28;20175;-64
2022/08/23 05:05:21;;;;;;;6.70;4.60;;;;;;;23.92;50.97;100199.00;5071509;28;20175;-64
2022/08/23 05:07:46;;;;;;;7.80;5.27;;;;;;;23.91;50.90;100192.44;5073149;28;20232;-64
2022/08/23 05:10:13;;;;;;;7.33;4.20;;;;;;;23.91;50.67;100195.31;5091291;28;20182;-64
2022/08/23 05:12:39;;;;;;;5.30;4.13;;;;;;;23.91;51.32;100203.13;5091311;28;21013;-64
2022/08/23 05:15:05;;;;;;;5.93;4.10;;;;;;;23.91;51.14;100198.19;5090243;28;20417;-64
2022/08/23 05:17:30;;;;;;;8.70;3.93;;;;;;;23.91;51.04;100201.09;5084088;28;20631;-64
2022/08/23 05:19:55;;;;;;;6.03;4.60;;;;;;;23.91;50.92;100215.50;5071579;28;20214;-64
2022/08/23 05:22:21;;;;;;;5.83;4.00;;;;;;;23.90;51.34;100216.75;5070737;28;20187;-64
2022/08/23 05:24:46;;;;;;;5.30;3.70;;;;;;;23.92;51.17;100210.53;5071805;28;20175;-64
2022/08/23 05:27:12;;;;;;;6.50;4.20;;;;;;;23.91;51.36;100215.50;5071822;28;20183;-64
2022/08/23 05:29:37;;;;;;;5.60;3.70;;;;;;;23.91;51.09;100215.50;5071912;28;20175;-64
2022/08/23 05:32:03;;;;;;;4.83;3.60;;;;;;;23.91;51.12;100226.19;5071797;28;20183;-64
2022/08/23 05:34:28;;;;;;;4.60;3.27;;;;;;;23.90;50.89;100225.41;5070508;28;20209;-64
2022/08/23 05:36:54;;;;;;;5.90;4.13;;;;;;;23.90;50.89;100225.41;5070771;28;20187;-64
2022/08/23 05:39:19;;;;;;;5.17;3.73;;;;;;;23.90;51.31;100224.56;5071392;28;20241;-64
2022/08/23 05:41:45;;;;;;;6.90;4.20;;;;;;;23.90;51.19;100231.16;5071594;28;20189;-64
2022/08/23 05:44:10;;;;;;;4.00;3.47;;;;;;;23.90;51.18;100234.06;5071718;28;20201;-64
2022/08/23 05:46:36;;;;;;;6.30;4.17;;;;;;;23.91;51.41;100231.97;5084547;28;20237;-64
2022/08/23 05:49:02;;;;;;;6.00;3.50;;;;;;;23.90;51.26;100236.94;5091879;28;20171;-64
2022/08/23 05:51:29;;;;;;;5.13;3.70;;;;;;;23.92;51.38;100240.22;5091631;28;20656;-64
2022/08/23 05:53:58;;;;;;;6.63;3.80;;;;;;;23.91;51.27;100244.34;5091769;28;20265;-64
2022/08/23 05:56:26;;;;;;;7.00;3.90;;;;;;;23.91;51.22;100249.28;5091974;28;21130;-64
2022/08/23 05:58:54;;;;;;;7.50;4.90;;;;;;;23.90;51.67;100254.25;5091094;28;20460;-64
2022/08/23 06:01:19;;;;;;;5.23;3.80;;;;;;;23.91;51.32;100264.53;5090345;28;20761;-64
2022/08/23 06:03:45;;;;;;;6.77;3.97;;;;;;;23.90;51.60;100257.13;5091681;28;20420;-64
2022/08/23 06:06:11;;;;;;;9.40;4.10;;;;;;;23.90;51.44;100262.06;5089908;28;20174;-62
2022/08/23 06:08:38;;;;;;;6.07;4.30;;;;;;;23.90;51.44;100268.66;5090610;28;20543;-62
2022/08/23 06:11:08;;;;;;;7.53;4.37;;;;;;;23.90;51.67;100271.53;5079126;28;20814;-63
2022/08/23 06:13:37;;;;;;;5.23;3.80;;;;;;;23.90;51.42;100271.53;5070364;28;20967;-63
2022/08/23 06:16:04;;;;;;;7.10;3.90;;;;;;;23.90;51.41;100276.47;5067849;28;20433;-63
2022/08/23 06:18:29;;;;;;;6.23;4.17;;;;;;;23.88;51.56;100268.19;5079787;28;20456;-63
2022/08/23 06:21:08;;;;;;;5.37;3.83;;;;;;;23.89;51.59;100269.06;5090725;28;20424;-63
2022/08/23 06:23:34;;;;;;;6.57;4.50;;;;;;;23.89;51.71;100272.75;5091616;28;20200;-63
2022/08/23 06:26:00;;;;;;;6.13;4.13;;;;;;;23.88;51.74;100276.84;5089605;28;20915;-63
2022/08/23 06:28:27;;;;;;;8.80;4.77;;;;;;;23.90;51.85;100270.72;5091240;28;20225;-63
2022/08/23 06:30:54;;;;;;;6.50;4.10;;;;;;;23.90;52.03;100285.13;5088068;28;20478;-63
2022/08/23 06:33:20;;;;;;;5.43;4.30;;;;;;;23.90;51.49;100283.06;5091279;28;20416;-63
2022/08/23 06:35:47;;;;;;;5.93;3.77;;;;;;;23.92;51.81;100282.63;5090694;28;20458;-63
2022/08/23 06:38:12;;;;;;;6.03;4.20;;;;;;;23.90;52.05;100288.84;5090923;28;20185;-63
2022/08/23 06:40:37;;;;;;;7.70;4.00;;;;;;;23.90;52.29;100283.06;5090649;28;20424;-63
2022/08/23 06:43:03;;;;;;;6.63;4.60;;;;;;;23.89;52.10;100275.63;5090534;28;20178;-63
2022/08/23 06:45:28;;;;;;;5.50;4.30;;;;;;;23.90;52.33;100283.06;5090197;28;20171;-63
2022/08/23 06:47:54;;;;;;;7.60;4.80;;;;;;;23.50;54.97;100283.56;5080374;28;20665;-64
2022/08/23 06:50:20;;;;;;;8.10;4.10;;;;;;;23.62;55.06;100283.13;5068566;28;20171;-63
2022/08/23 06:52:47;;;;;;;6.03;4.37;;;;;;;23.97;56.98;100293.72;5080034;28;20902;-64
2022/08/23 06:55:12;;;;;;;9.97;6.10;;;;;;;24.35;59.86;100282.03;5086097;28;20211;-63
2022/08/23 06:57:38;;;;;;;13.97;7.13;;;;;;;24.42;57.99;100286.91;5087755;28;20523;-63
2022/08/23 07:00:05;;;;;;;9.23;5.80;;;;;;;23.71;59.92;100285.56;5084078;28;20680;-63
2022/08/23 07:02:30;;;;;;;9.67;5.40;;;;;;;23.88;60.91;100297.03;5088966;28;20552;-63
2022/08/23 07:04:55;;;;;;;9.23;5.30;;;;;;;23.58;62.03;100298.78;5088567;28;20424;-63
2022/08/23 07:07:21;;;;;;;8.50;5.43;;;;;;;23.91;61.30;100290.47;5089605;28;20182;-63
2022/08/23 07:09:47;;;;;;;9.63;5.33;;;;;;;23.54;60.90;100303.75;5078379;28;20193;-63
2022/08/23 07:12:12;;;;;;;10.13;4.90;;;;;;;23.27;63.31;100297.59;5069233;28;20296;-63
2022/08/23 07:14:37;;;;;;;14.07;5.47;;;;;;;23.61;61.99;100297.94;5079099;28;20185;-63
2022/08/23 07:17:03;;;;;;;8.10;4.77;;;;;;;23.23;61.09;100293.91;5089180;28;20179;-63
2022/08/23 07:19:30;;;;;;;9.20;4.90;;;;;;;23.46;61.06;100299.22;5088666;28;20275;-63
2022/08/23 07:21:56;;;;;;;11.90;5.47;;;;;;;23.75;61.13;100304.50;5088937;28;20186;-63
2022/08/23 07:24:22;;;;;;;11.77;5.50;;;;;;;23.93;59.61;100299.53;5089330;28;20455;-64
2022/08/23 07:26:48;;;;;;;7.50;4.87;;;;;;;23.93;58.68;100305.28;5088659;28;20428;-64
2022/08/23 07:29:14;;;;;;;7.23;4.23;;;;;;;23.97;59.57;100306.09;5090559;28;20773;-64
2022/08/23 07:31:44;;;;;;;10.23;4.53;;;;;;;23.98;58.54;100304.84;5085506;28;20182;-64
2022/08/23 07:34:10;;;;;;;6.50;4.47;;;;;;;23.42;59.19;100310.75;5077672;28;20201;-63
2022/08/23 07:36:36;;;;;;;12.40;4.23;;;;;;;23.47;58.09;100309.50;5075665;28;20448;-63
2022/08/23 07:39:03;;;;;;;8.17;4.17;;;;;;;23.73;58.11;100312.75;5090158;28;20807;-63
2022/08/23 07:41:29;;;;;;;8.30;3.83;;;;;;;23.82;57.03;100309.41;5052955;28;20203;-63
2022/08/23 07:44:00;;;;;;;7.03;4.20;;;;;;;23.54;56.50;100316.06;5069570;28;20939;-63
2022/08/23 07:46:26;;;;;;;9.70;3.90;;;;;;;23.71;58.36;100309.47;5081721;28;20424;-64
2022/08/23 07:48:51;;;;;;;5.97;3.37;;;;;;;23.89;57.02;100310.25;5090124;28;21352;-64
2022/08/23 07:51:17;;;;;;;7.97;4.00;;;;;;;23.92;56.06;100323.00;5088989;28;20178;-63
2022/08/23 07:53:44;;;;;;;8.13;4.07;;;;;;;23.93;57.04;100325.47;5089871;28;20189;-63
2022/08/23 07:56:10;;;;;;;6.63;4.40;;;;;;;23.96;56.59;100318.06;5089288;28;20182;-63
2022/08/23 07:58:36;;;;;;;9.27;4.33;;;;;;;24.04;56.72;100319.69;5090526;28;20468;-63
2022/08/23 08:01:18;;;;;;;9.10;4.73;;;;;;;24.07;56.32;100311.00;5089285;28;20475;-64
2022/08/23 08:03:46;;;;;;;8.90;4.13;;;;;;;23.72;57.07;100322.63;5067034;28;20164;-63
2022/08/23 08:06:35;;;;;;;6.80;3.67;;;;;;;23.85;56.07;100315.19;5071520;28;20432;-63
2022/08/23 08:09:01;;;;;;;8.03;4.17;;;;;;;23.90;56.77;100322.63;5083950;28;20963;-63
2022/08/23 08:11:27;;;;;;;7.20;4.27;;;;;;;24.07;56.48;100321.72;5070661;28;20477;-63
2022/08/23 08:13:53;;;;;;;5.20;3.77;;;;;;;24.06;56.09;100329.56;5067696;28;20280;-63
2022/08/23 08:16:25;;;;;;;11.07;3.20;;;;;;;24.13;55.18;100326.63;5069809;28;20401;-63
2022/08/23 08:18:51;;;;;;;9.33;3.83;;;;;;;23.66;53.88;100318.53;5070300;28;20229;-63
2022/08/23 08:21:17;;;;;;;8.43;4.30;;;;;;;24.03;55.16;100315.97;5089013;28;20432;-63
2022/08/23 08:23:42;;;;;;;9.30;3.80;;;;;;;23.96;54.21;100323.81;5089963;28;20412;-63
2022/08/23 08:26:08;;;;;;;12.90;3.87;;;;;;;24.11;54.98;100316.75;5089336;28;20182;-63
2022/08/23 08:28:34;;;;;;;13.70;3.70;;;;;;;24.20;54.98;100320.84;5089948;28;20217;-63
2022/08/23 08:31:00;;;;;;;8.07;3.53;;;;;;;24.15;54.39;100314.69;5088652;28;20508;-63
2022/08/23 08:33:25;;;;;;;7.10;4.00;;;;;;;24.15;54.36;100317.56;5089212;28;20182;-63
2022/08/23 08:35:51;;;;;;;9.60;3.77;;;;;;;24.08;53.76;100317.63;5088935;28;20239;-63
2022/08/23 08:38:17;;;;;;;7.60;3.37;;;;;;;24.10;53.88;100326.66;5088765;28;20282;-63
2022/08/23 08:40:42;;;;;;;6.70;3.60;;;;;;;24.07;53.72;100316.78;5088358;28;20270;-63
2022/08/23 08:44:00;;;;;;;9.20;4.00;;;;;;;23.96;53.78;100315.16;5088053;28;20198;-63
2022/08/23 08:46:46;;;;;;;7.70;3.53;;;;;;;24.05;53.46;100318.44;5041645;28;20210;-63
2022/08/23 08:49:31;;;;;;;9.30;3.70;;;;;;;24.11;54.71;100325.41;5071531;28;20920;-63
2022/08/23 08:52:11;;;;;;;9.90;3.13;;;;;;;24.20;54.55;100326.63;5106174;22;20492;-72
2022/08/23 08:54:36;;;;;;;9.73;3.80;;;;;;;24.24;54.00;100321.63;5011550;28;20956;-69
2022/08/23 08:57:02;;;;;;;13.00;4.40;;;;;;;24.23;54.69;100328.66;5014625;28;20438;-69
2022/08/23 08:59:34;;;;;;;9.13;3.70;;;;;;;24.30;53.93;100322.03;5014272;28;20674;-69
2022/08/23 09:02:01;;;;;;;7.40;3.30;;;;;;;24.25;52.24;100320.41;5015925;28;20176;-72
2022/08/23 09:04:27;;;;;;;7.07;3.00;;;;;;;24.26;51.83;100319.16;5034253;28;20477;-70
2022/08/23 09:07:31;;;;;;;7.07;3.07;;;;;;;24.27;52.07;100322.88;5017197;28;20891;-73
2022/08/23 09:10:09;;;;;;;6.90;2.90;;;;;;;24.26;51.70;100319.16;5017782;28;20188;-73
2022/08/23 09:12:57;;;;;;;6.77;3.27;;;;;;;24.26;52.24;100324.09;5036050;28;20446;-74
2022/08/23 09:15:38;;;;;;;7.17;2.70;;;;;;;24.35;51.98;100325.31;5016081;28;20462;-70
2022/08/23 09:18:11;;;;;;;8.60;3.30;;;;;;;24.44;54.89;100327.75;5018024;28;20436;-73
2022/08/23 09:20:37;;;;;;;6.30;2.90;;;;;;;24.39;52.97;100323.22;5006317;28;20489;-73
2022/08/23 09:23:13;;;;;;;9.30;2.87;;;;;;;24.36;52.45;100324.06;5007068;28;20432;-71
2022/08/23 09:25:38;;;;;;;7.47;2.70;;;;;;;24.44;53.25;100319.88;5003331;28;20655;-70
2022/08/23 09:28:04;;;;;;;7.30;3.33;;;;;;;24.48;51.99;100314.91;5009439;28;20490;-71
2022/08/23 09:30:53;;;;;;;6.57;2.73;;;;;;;24.42;52.50;100310.84;5003128;28;20169;-70
2022/08/23 09:33:20;;;;;;;13.73;2.93;;;;;;;24.42;52.49;100310.84;5024638;28;20207;-71
2022/08/23 09:36:06;;;;;;;4.67;2.87;;;;;;;24.44;51.99;100321.97;5011423;28;20482;-68
2022/08/23 09:38:31;;;;;;;10.73;3.07;;;;;;;24.47;51.37;100319.06;5012097;28;20809;-70
2022/08/23 09:40:57;;;;;;;5.83;2.77;;;;;;;24.46;51.09;100323.19;5015568;28;20431;-70
2022/08/23 09:43:25;;;;;;;5.20;2.80;;;;;;;24.47;50.90;100318.22;5015928;28;20627;-70
2022/08/23 09:45:51;;;;;;;11.60;3.67;;;;;;;24.45;50.69;100315.78;5013643;28;20172;-71
2022/08/23 09:48:33;;;;;;;5.87;2.53;;;;;;;24.46;50.54;100320.31;5033750;28;20432;-70
2022/08/23 09:51:18;;;;;;;11.60;3.30;;;;;;;24.51;50.33;100307.47;5012153;28;20188;-70
2022/08/23 09:53:52;;;;;;;6.80;2.90;;;;;;;24.45;50.47;100304.22;4999091;28;21218;-69
2022/08/23 09:56:23;;;;;;;5.37;3.10;;;;;;;24.51;50.42;100302.53;4985305;28;20803;-71
2022/08/23 09:58:52;;;;;;;7.20;3.07;;;;;;;24.48;50.33;100296.78;4981938;28;20578;-68
2022/08/23 10:01:20;;;;;;;8.50;3.03;;;;;;;24.48;50.78;100293.91;4981162;28;20792;-68
2022/08/23 10:04:10;;;;;;;8.00;3.07;;;;;;;24.53;50.75;100297.16;4961537;28;20428;-68
2022/08/23 10:06:37;;;;;;;7.93;3.43;;;;;;;24.54;50.64;100295.91;4995526;28;20404;-68
2022/08/23 10:09:03;;;;;;;6.73;3.40;;;;;;;24.57;49.93;100289.31;4963242;28;20515;-69
2022/08/23 10:11:35;;;;;;;7.27;3.40;;;;;;;24.59;50.18;100280.25;4978152;28;20420;-68
2022/08/23 10:14:00;;;;;;;5.53;3.00;;;;;;;24.66;50.05;100288.84;4981029;28;20454;-68
2022/08/23 10:16:25;;;;;;;5.50;2.90;;;;;;;24.68;49.97;100280.63;5010127;28;20803;-69
2022/08/23 10:19:13;;;;;;;5.60;3.30;;;;;;;24.64;49.95;100280.63;5014017;28;20599;-69
2022/08/23 10:21:57;;;;;;;8.20;2.83;;;;;;;24.60;50.37;100276.94;5009832;28;20208;-69
2022/08/23 10:24:53;;;;;;;8.43;3.03;;;;;;;24.60;50.35;100276.13;4988556;28;20513;-71
2022/08/23 10:30:12;;;;;;;10.43;3.53;;;;;;;24.70;50.38;100275.22;5009713;28;20439;-68
2022/08/23 10:32:57;;;;;;;7.90;3.37;;;;;;;24.75;49.91;100275.59;5010635;28;20420;-71
2022/08/23 10:35:31;;;;;;;8.07;3.00;;;;;;;24.77;49.88;100275.16;5010348;28;20792;-70
2022/08/23 10:38:25;;;;;;;7.80;3.60;;;;;;;24.74;49.98;100273.94;5010569;28;20783;-69
2022/08/23 10:41:34;;;;;;;8.47;3.30;;;;;;;24.66;50.34;100260.81;5012203;28;20419;-71
2022/08/23 10:44:26;;;;;;;5.53;2.93;;;;;;;24.76;50.59;100267.75;4985525;28;20430;-70
2022/08/23 10:47:25;;;;;;;7.60;3.40;;;;;;;24.93;50.14;100266.81;4992904;28;20482;-67
2022/08/23 10:49:51;;;;;;;5.87;3.60;;;;;;;24.85;50.34;100259.44;5005929;28;20436;-70
2022/08/23 10:52:25;;;;;;;5.63;2.83;;;;;;;24.88;50.23;100264.38;4991969;28;20526;-68
2022/08/23 10:55:04;;;;;;;9.30;3.27;;;;;;;24.95;49.65;100256.47;4992126;28;20287;-71
2022/08/23 10:57:35;;;;;;;6.27;3.03;;;;;;;24.87;50.04;100248.25;4982488;28;20431;-71
2022/08/23 11:00:07;;;;;;;5.17;2.63;;;;;;;25.00;49.35;100255.16;4993230;28;20456;-68
2022/08/23 11:02:42;;;;;;;4.30;3.30;;;;;;;24.99;49.01;100257.22;4993309;28;20455;-70
2022/08/23 11:05:26;;;;;;;6.70;3.57;;;;;;;25.08;48.49;100250.97;5013184;28;20486;-71
2022/08/23 11:08:05;;;;;;;5.77;3.10;;;;;;;25.09;48.26;100252.63;4996764;28;20454;-70
2022/08/23 11:10:33;;;;;;;5.37;3.20;;;;;;;25.06;49.00;100248.50;5010402;28;20430;-68
2022/08/23 11:13:11;;;;;;;7.10;3.30;;;;;;;24.89;49.59;100237.91;5015217;28;20920;-70
2022/08/23 11:15:54;;;;;;;10.77;3.03;;;;;;;24.89;49.84;100243.69;5014126;28;20462;-71
2022/08/23 11:18:39;;;;;;;7.80;3.27;;;;;;;24.95;49.16;100232.53;5014256;28;20396;-68
2022/08/23 11:21:17;;;;;;;8.93;2.97;;;;;;;25.00;49.26;100232.91;4997578;28;20463;-72
2022/08/23 11:23:53;;;;;;;6.13;2.93;;;;;;;25.02;49.20;100229.56;5014174;28;20415;-69
2022/08/23 11:26:21;;;;;;;6.67;3.53;;;;;;;24.93;49.50;100226.38;4982035;28;20422;-68
2022/08/23 11:28:47;;;;;;;8.60;3.50;;;;;;;25.03;49.55;100226.25;5013851;28;20914;-68
2022/08/23 11:31:22;;;;;;;6.37;3.30;;;;;;;25.20;48.24;100231.03;4995815;28;20914;-68
2022/08/23 11:34:24;;;;;;;5.40;3.30;;;;;;;25.04;49.00;100227.88;4982150;28;20419;-70
2022/08/23 11:37:17;;;;;;;6.70;2.93;;;;;;;25.11;48.27;100227.84;5015115;28;20475;-71
2022/08/23 11:39:56;;;;;;;5.43;3.03;;;;;;;25.13;48.04;100224.53;5015112;28;20448;-69
2022/08/23 11:42:22;;;;;;;7.53;3.43;;;;;;;25.08;48.74;100228.66;5014940;28;20423;-68
2022/08/23 11:44:47;;;;;;;5.67;2.93;;;;;;;25.20;48.15;100233.94;4982613;28;20416;-68